South Fork, PA (15956)

6:27 PM EST on February 06, 2016 (GMT -0500)
Jackson Twp - Swigle Mountain Road | | Change Station
CLOSE
Current Station
Personal Weather Station
Location: Mineral Point, PA
Elevation: 2277 ft
Nearby Weather Stations

Elev 2277 ft 40.40 °N, 78.80 °W | Updated 3 seconds ago

Clear
Clear
32.7 °F
Feels Like 27 °F
N
5.8
Wind Variable Wind from WSW
Gusts 5.8 mph

Today
High -- | Low -- °F
--% Chance of Precip.
Yesterday
High -- | Low -- °F
Precip. -- in
Pressure 30.23 in
Visibility 10.0 miles
Clouds Clear
Windchill 27 °F
Dew Point 12 °F
Humidity 42%
Rainfall 0.00 in
Snow Depth Not available.
7:19 AM 5:39 PM
Waning Crescent, 4% visible
METAR KJST 062254Z AUTO 25005KT 10SM CLR 02/M09 A3015 RMK AO2 SLP236 T00171094
Pressure 30.23 in
Visibility 10.0 miles
Clouds Clear
Windchill 27 °F
Dew Point 12 °F
Humidity 42%
Rainfall 0.00 in
Snow Depth Not available.
7:19 AM 5:39 PM
Waning Crescent, 4% visible
METAR KJST 062254Z AUTO 25005KT 10SM CLR 02/M09 A3015 RMK AO2 SLP236 T00171094

10-Day Weather Forecast

Almanac

Astronomy

Feb. 06, 2016 Rise Set
Actual Time
Civil Twilight
Nautical Twilight
Astronomical Twilight
Moon
Length of Visible Light
Length of Day
Tomorrow will be .
, % of the Moon is Illuminated

Today's Extremes

State Highs State Lows

Community

WunderPhotos

Upload Photos

1,891,094 photos uploaded!

WunderBlog® & News

Nearby

Air Quality

  Air Quality AQ Index Pollutant
Not available.

Snow Depth

Station Depth Elevation

Earthquake Activity

City Distance Mag. Time & Date
Minimum magnitude displayed is 2.5.

Coastal Water Temperatures

Place Temperature

Stations

Nearby Weather Stations

Station Location Temp. Windchill Dew Point Humidity Wind Precip. Elev Updated Type
                   

Watches & Warnings

There are currently no watches in effect.